sensor_id;sensor_type;location;lat;lon;timestamp;temperature;humidity
21834;DHT22;11079;51.092;3.458;2023-03-05T00:02:05;7.50;99.90
21834;DHT22;11079;51.092;3.458;2023-03-05T00:08:06;7.50;99.90
21834;DHT22;11079;51.092;3.458;2023-03-05T00:14:08;7.30;99.90
21834;DHT22;11079;51.092;3.458;2023-03-05T00:16:42;7.40;99.90
21834;DHT22;11079;51.092;3.458;2023-03-05T00:19:37;7.40;99.90
21834;DHT22;11079;51.092;3.458;2023-03-05T00:22:26;7.20;99.90
21834;DHT22;11079;51.092;3.458;2023-03-05T00:28:29;7.00;99.90
21834;DHT22;11079;51.092;3.458;2023-03-05T01:02:40;6.30;99.90
21834;DHT22;11079;51.092;3.458;2023-03-05T01:06:13;6.40;99.90
21834;DHT22;11079;51.092;3.458;2023-03-05T01:09:24;6.70;99.90
21834;DHT22;11079;51.092;3.458;2023-03-05T01:23:51;6.40;99.90
21834;DHT22;11079;51.092;3.458;2023-03-05T01:27:08;6.40;99.90
21834;DHT22;11079;51.092;3.458;2023-03-05T01:29:59;6.40;99.90
21834;DHT22;11079;51.092;3.458;2023-03-05T01:32:48;6.30;99.90
21834;DHT22;11079;51.092;3.458;2023-03-05T01:35:25;6.30;99.90
21834;DHT22;11079;51.092;3.458;2023-03-05T01:38:03;6.40;99.90
21834;DHT22;11079;51.092;3.458;2023-03-05T01:40:51;6.50;99.90
21834;DHT22;11079;51.092;3.458;2023-03-05T01:43:35;6.60;99.90
21834;DHT22;11079;51.092;3.458;2023-03-05T01:46:38;6.60;99.90
21834;DHT22;11079;51.092;3.458;2023-03-05T01:49:38;6.40;99.90
21834;DHT22;11079;51.092;3.458;2023-03-05T01:52:12;6.30;99.90
21834;DHT22;11079;51.092;3.458;2023-03-05T01:55:09;6.30;99.90
21834;DHT22;11079;51.092;3.458;2023-03-05T01:57:53;6.40;99.90
21834;DHT22;11079;51.092;3.458;2023-03-05T02:00:31;6.40;99.90
21834;DHT22;11079;51.092;3.458;2023-03-05T02:03:04;6.40;99.90
21834;DHT22;11079;51.092;3.458;2023-03-05T02:05:36;6.60;99.90
21834;DHT22;11079;51.092;3.458;2023-03-05T02:08:19;6.60;99.90
21834;DHT22;11079;51.092;3.458;2023-03-05T02:10:54;6.60;99.90
21834;DHT22;11079;51.092;3.458;2023-03-05T02:13:37;6.50;99.90
21834;DHT22;11079;51.092;3.458;2023-03-05T02:16:08;6.60;99.90
21834;DHT22;11079;51.092;3.458;2023-03-05T02:18:59;6.60;99.90
21834;DHT22;11079;51.092;3.458;2023-03-05T02:21:44;6.50;99.90
21834;DHT22;11079;51.092;3.458;2023-03-05T02:24:37;6.40;99.90
21834;DHT22;11079;51.092;3.458;2023-03-05T02:27:05;6.50;99.90
21834;DHT22;11079;51.092;3.458;2023-03-05T02:29:48;6.50;99.90
21834;DHT22;11079;51.092;3.458;2023-03-05T02:32:18;6.30;99.90
21834;DHT22;11079;51.092;3.458;2023-03-05T02:35:01;6.20;99.90
21834;DHT22;11079;51.092;3.458;2023-03-05T02:37:44;6.30;99.90
21834;DHT22;11079;51.092;3.458;2023-03-05T02:40:41;6.10;99.90
21834;DHT22;11079;51.092;3.458;2023-03-05T02:43:11;6.10;99.90
21834;DHT22;11079;51.092;3.458;2023-03-05T02:45:57;6.20;99.90
21834;DHT22;11079;51.092;3.458;2023-03-05T02:48:59;6.10;99.90
21834;DHT22;11079;51.092;3.458;2023-03-05T02:51:33;5.80;99.90
21834;DHT22;11079;51.092;3.458;2023-03-05T02:54:10;5.90;99.90
21834;DHT22;11079;51.092;3.458;2023-03-05T02:56:59;6.00;99.90
21834;DHT22;11079;51.092;3.458;2023-03-05T02:59:26;6.00;99.90
21834;DHT22;11079;51.092;3.458;2023-03-05T03:01:54;6.00;99.90
21834;DHT22;11079;51.092;3.458;2023-03-05T03:04:30;5.80;99.90
21834;DHT22;11079;51.092;3.458;2023-03-05T03:07:01;5.80;99.90
21834;DHT22;11079;51.092;3.458;2023-03-05T03:09:36;6.00;99.90
21834;DHT22;11079;51.092;3.458;2023-03-05T03:12:05;6.00;99.90
21834;DHT22;11079;51.092;3.458;2023-03-05T03:14:40;6.00;99.90
21834;DHT22;11079;51.092;3.458;2023-03-05T03:17:12;6.10;99.90
21834;DHT22;11079;51.092;3.458;2023-03-05T03:19:54;6.20;99.90
21834;DHT22;11079;51.092;3.458;2023-03-05T03:22:19;6.40;99.90
21834;DHT22;11079;51.092;3.458;2023-03-05T03:24:50;6.40;99.90
21834;DHT22;11079;51.092;3.458;2023-03-05T03:27:16;6.40;99.90
21834;DHT22;11079;51.092;3.458;2023-03-05T03:33:06;6.50;99.90
21834;DHT22;11079;51.092;3.458;2023-03-05T03:35:37;6.50;99.90
21834;DHT22;11079;51.092;3.458;2023-03-05T03:38:30;6.40;99.90
21834;DHT22;11079;51.092;3.458;2023-03-05T03:41:06;6.70;99.90
21834;DHT22;11079;51.092;3.458;2023-03-05T03:43:36;6.70;99.90
21834;DHT22;11079;51.092;3.458;2023-03-05T03:46:18;6.60;99.90
21834;DHT22;11079;51.092;3.458;2023-03-05T03:49:32;6.80;99.90
21834;DHT22;11079;51.092;3.458;2023-03-05T03:56:10;6.80;99.90
21834;DHT22;11079;51.092;3.458;2023-03-05T03:59:17;6.80;99.90
21834;DHT22;11079;51.092;3.458;2023-03-05T04:01:57;6.80;99.90
21834;DHT22;11079;51.092;3.458;2023-03-05T04:04:38;6.60;99.90
21834;DHT22;11079;51.092;3.458;2023-03-05T04:07:25;6.60;99.90
21834;DHT22;11079;51.092;3.458;2023-03-05T04:10:14;6.60;99.90
21834;DHT22;11079;51.092;3.458;2023-03-05T04:12:48;6.70;99.90
21834;DHT22;11079;51.092;3.458;2023-03-05T04:15:43;6.80;99.90
21834;DHT22;11079;51.092;3.458;2023-03-05T04:18:26;6.90;99.90
21834;DHT22;11079;51.092;3.458;2023-03-05T04:20:58;6.80;99.90
21834;DHT22;11079;51.092;3.458;2023-03-05T04:23:34;6.70;99.90
21834;DHT22;11079;51.092;3.458;2023-03-05T04:26:12;6.60;99.90
21834;DHT22;11079;51.092;3.458;2023-03-05T04:29:14;6.60;99.90
21834;DHT22;11079;51.092;3.458;2023-03-05T04:32:23;6.50;99.90
21834;DHT22;11079;51.092;3.458;2023-03-05T04:35:02;6.50;99.90
21834;DHT22;11079;51.092;3.458;2023-03-05T04:37:35;6.50;99.90
21834;DHT22;11079;51.092;3.458;2023-03-05T04:40:03;6.70;99.90
21834;DHT22;11079;51.092;3.458;2023-03-05T04:42:37;6.70;99.90
21834;DHT22;11079;51.092;3.458;2023-03-05T04:45:04;6.70;99.90
21834;DHT22;11079;51.092;3.458;2023-03-05T04:47:50;6.50;99.90
21834;DHT22;11079;51.092;3.458;2023-03-05T04:50:37;6.50;99.90
21834;DHT22;11079;51.092;3.458;2023-03-05T04:53:16;6.40;99.90
21834;DHT22;11079;51.092;3.458;2023-03-05T04:58:52;6.30;99.90
21834;DHT22;11079;51.092;3.458;2023-03-05T05:01:25;6.20;99.90
21834;DHT22;11079;51.092;3.458;2023-03-05T05:04:14;6.20;99.90
21834;DHT22;11079;51.092;3.458;2023-03-05T05:07:00;6.20;99.90
21834;DHT22;11079;51.092;3.458;2023-03-05T05:09:39;6.20;99.90
21834;DHT22;11079;51.092;3.458;2023-03-05T05:12:13;6.10;99.90
21834;DHT22;11079;51.092;3.458;2023-03-05T05:15:26;6.20;99.90
21834;DHT22;11079;51.092;3.458;2023-03-05T05:17:58;6.40;99.90
21834;DHT22;11079;51.092;3.458;2023-03-05T05:20:40;6.40;99.90
21834;DHT22;11079;51.092;3.458;2023-03-05T05:23:14;6.30;99.90
21834;DHT22;11079;51.092;3.458;2023-03-05T05:25:43;6.10;99.90
21834;DHT22;11079;51.092;3.458;2023-03-05T05:28:10;6.00;99.90
21834;DHT22;11079;51.092;3.458;2023-03-05T05:30:45;6.40;99.90
21834;DHT22;11079;51.092;3.458;2023-03-05T05:33:31;6.30;99.90
21834;DHT22;11079;51.092;3.458;2023-03-05T05:36:05;6.30;99.90
21834;DHT22;11079;51.092;3.458;2023-03-05T05:38:32;6.40;99.90
21834;DHT22;11079;51.092;3.458;2023-03-05T05:41:11;6.40;99.90
21834;DHT22;11079;51.092;3.458;2023-03-05T05:43:38;6.50;99.90
21834;DHT22;11079;51.092;3.458;2023-03-05T05:46:10;6.60;99.90
21834;DHT22;11079;51.092;3.458;2023-03-05T05:48:37;6.50;99.90
21834;DHT22;11079;51.092;3.458;2023-03-05T05:51:15;6.40;99.90
21834;DHT22;11079;51.092;3.458;2023-03-05T05:53:43;6.50;99.90
21834;DHT22;11079;51.092;3.458;2023-03-05T05:56:13;6.50;99.90
21834;DHT22;11079;51.092;3.458;2023-03-05T05:58:44;6.60;99.90
21834;DHT22;11079;51.092;3.458;2023-03-05T06:01:20;6.60;99.90
21834;DHT22;11079;51.092;3.458;2023-03-05T06:03:52;6.70;99.90
21834;DHT22;11079;51.092;3.458;2023-03-05T06:09:12;6.60;99.90
21834;DHT22;11079;51.092;3.458;2023-03-05T06:11:58;6.70;99.90
21834;DHT22;11079;51.092;3.458;2023-03-05T06:14:33;6.60;99.90
21834;DHT22;11079;51.092;3.458;2023-03-05T06:16:59;6.80;99.90
21834;DHT22;11079;51.092;3.458;2023-03-05T06:19:27;6.70;99.90
21834;DHT22;11079;51.092;3.458;2023-03-05T06:21:58;6.70;99.90
21834;DHT22;11079;51.092;3.458;2023-03-05T06:24:32;6.70;99.90
21834;DHT22;11079;51.092;3.458;2023-03-05T06:27:00;6.80;99.90
21834;DHT22;11079;51.092;3.458;2023-03-05T06:29:36;6.80;99.90
21834;DHT22;11079;51.092;3.458;2023-03-05T06:32:09;6.70;99.90
21834;DHT22;11079;51.092;3.458;2023-03-05T06:34:42;6.60;99.90
21834;DHT22;11079;51.092;3.458;2023-03-05T06:37:08;6.60;99.90
21834;DHT22;11079;51.092;3.458;2023-03-05T06:39:34;6.60;99.90
21834;DHT22;11079;51.092;3.458;2023-03-05T06:42:06;6.70;99.90
21834;DHT22;11079;51.092;3.458;2023-03-05T06:44:39;6.70;99.90
21834;DHT22;11079;51.092;3.458;2023-03-05T06:47:08;6.70;99.90
21834;DHT22;11079;51.092;3.458;2023-03-05T06:49:37;6.50;99.90
21834;DHT22;11079;51.092;3.458;2023-03-05T06:52:09;6.50;99.90
21834;DHT22;11079;51.092;3.458;2023-03-05T06:54:46;6.60;99.90
21834;DHT22;11079;51.092;3.458;2023-03-05T06:57:23;6.60;99.90
21834;DHT22;11079;51.092;3.458;2023-03-05T07:00:00;6.70;99.90
21834;DHT22;11079;51.092;3.458;2023-03-05T07:05:42;6.70;99.90
21834;DHT22;11079;51.092;3.458;2023-03-05T07:11:33;6.80;99.90
21834;DHT22;11079;51.092;3.458;2023-03-05T07:14:18;6.80;99.90
21834;DHT22;11079;51.092;3.458;2023-03-05T07:17:07;6.90;99.90
21834;DHT22;11079;51.092;3.458;2023-03-05T07:19:33;7.10;99.90
21834;DHT22;11079;51.092;3.458;2023-03-05T07:21:59;7.10;99.90
21834;DHT22;11079;51.092;3.458;2023-03-05T07:24:24;7.30;99.90
21834;DHT22;11079;51.092;3.458;2023-03-05T07:26:55;7.50;99.90
21834;DHT22;11079;51.092;3.458;2023-03-05T07:29:22;7.70;99.90
21834;DHT22;11079;51.092;3.458;2023-03-05T07:31:48;8.30;99.90
21834;DHT22;11079;51.092;3.458;2023-03-05T07:34:14;9.40;99.90
21834;DHT22;11079;51.092;3.458;2023-03-05T07:36:39;9.30;99.90
21834;DHT22;11079;51.092;3.458;2023-03-05T07:39:07;9.30;99.90
21834;DHT22;11079;51.092;3.458;2023-03-05T07:41:52;9.30;99.90
21834;DHT22;11079;51.092;3.458;2023-03-05T07:44:18;9.20;99.90
21834;DHT22;11079;51.092;3.458;2023-03-05T07:46:44;9.00;99.90
21834;DHT22;11079;51.092;3.458;2023-03-05T07:49:10;8.80;99.90
21834;DHT22;11079;51.092;3.458;2023-03-05T07:51:36;8.80;99.90
21834;DHT22;11079;51.092;3.458;2023-03-05T07:54:02;8.50;99.90
21834;DHT22;11079;51.092;3.458;2023-03-05T07:56:33;8.10;99.90
21834;DHT22;11079;51.092;3.458;2023-03-05T07:59:11;8.00;99.90
21834;DHT22;11079;51.092;3.458;2023-03-05T08:01:37;7.60;99.90
21834;DHT22;11079;51.092;3.458;2023-03-05T08:04:05;7.50;99.90
21834;DHT22;11079;51.092;3.458;2023-03-05T08:06:31;7.50;99.90
21834;DHT22;11079;51.092;3.458;2023-03-05T08:08:58;7.40;99.90
21834;DHT22;11079;51.092;3.458;2023-03-05T08:11:26;7.20;99.90
21834;DHT22;11079;51.092;3.458;2023-03-05T08:13:54;7.40;99.90
21834;DHT22;11079;51.092;3.458;2023-03-05T08:16:22;7.50;99.90
21834;DHT22;11079;51.092;3.458;2023-03-05T08:18:53;7.70;99.90
21834;DHT22;11079;51.092;3.458;2023-03-05T08:21:31;8.00;99.90
21834;DHT22;11079;51.092;3.458;2023-03-05T08:24:02;8.20;99.90
21834;DHT22;11079;51.092;3.458;2023-03-05T08:26:29;8.40;99.90
21834;DHT22;11079;51.092;3.458;2023-03-05T08:28:56;8.40;99.90
21834;DHT22;11079;51.092;3.458;2023-03-05T08:31:23;8.40;99.90
21834;DHT22;11079;51.092;3.458;2023-03-05T08:33:50;8.40;99.90
21834;DHT22;11079;51.092;3.458;2023-03-05T08:36:16;8.50;99.90
21834;DHT22;11079;51.092;3.458;2023-03-05T08:38:42;8.60;99.90
21834;DHT22;11079;51.092;3.458;2023-03-05T08:41:09;8.80;99.90
21834;DHT22;11079;51.092;3.458;2023-03-05T08:43:35;8.70;99.90
21834;DHT22;11079;51.092;3.458;2023-03-05T08:46:01;9.00;99.90
21834;DHT22;11079;51.092;3.458;2023-03-05T08:48:28;9.10;99.90
21834;DHT22;11079;51.092;3.458;2023-03-05T08:50:53;9.00;99.90
21834;DHT22;11079;51.092;3.458;2023-03-05T08:53:21;8.90;99.90
21834;DHT22;11079;51.092;3.458;2023-03-05T08:55:56;8.80;99.90
21834;DHT22;11079;51.092;3.458;2023-03-05T08:58:22;8.60;99.90
21834;DHT22;11079;51.092;3.458;2023-03-05T09:00:48;8.60;99.90
21834;DHT22;11079;51.092;3.458;2023-03-05T09:03:14;8.40;99.90
21834;DHT22;11079;51.092;3.458;2023-03-05T09:05:40;8.10;99.90
21834;DHT22;11079;51.092;3.458;2023-03-05T09:08:05;7.70;99.90
21834;DHT22;11079;51.092;3.458;2023-03-05T09:10:31;7.70;99.90
21834;DHT22;11079;51.092;3.458;2023-03-05T09:12:56;7.40;99.90
21834;DHT22;11079;51.092;3.458;2023-03-05T09:15:22;7.10;99.90
21834;DHT22;11079;51.092;3.458;2023-03-05T09:17:49;7.00;99.90
21834;DHT22;11079;51.092;3.458;2023-03-05T09:20:15;7.10;99.90
21834;DHT22;11079;51.092;3.458;2023-03-05T09:22:41;7.20;99.90
21834;DHT22;11079;51.092;3.458;2023-03-05T09:25:09;7.30;99.90
21834;DHT22;11079;51.092;3.458;2023-03-05T09:27:37;7.20;99.90
21834;DHT22;11079;51.092;3.458;2023-03-05T09:30:10;7.00;99.90
21834;DHT22;11079;51.092;3.458;2023-03-05T09:32:35;6.80;99.90
21834;DHT22;11079;51.092;3.458;2023-03-05T09:35:02;6.60;99.90
21834;DHT22;11079;51.092;3.458;2023-03-05T09:37:28;6.50;99.90
21834;DHT22;11079;51.092;3.458;2023-03-05T09:39:54;6.60;99.90
21834;DHT22;11079;51.092;3.458;2023-03-05T09:43:00;6.90;99.90
21834;DHT22;11079;51.092;3.458;2023-03-05T09:51:33;7.70;99.90
21834;DHT22;11079;51.092;3.458;2023-03-05T09:54:11;7.90;99.90
21834;DHT22;11079;51.092;3.458;2023-03-05T09:56:47;8.00;99.90
21834;DHT22;11079;51.092;3.458;2023-03-05T10:02:33;8.60;99.90
21834;DHT22;11079;51.092;3.458;2023-03-05T10:05:25;9.00;99.90
21834;DHT22;11079;51.092;3.458;2023-03-05T10:08:20;9.00;99.90
21834;DHT22;11079;51.092;3.458;2023-03-05T10:10:51;9.10;99.90
21834;DHT22;11079;51.092;3.458;2023-03-05T10:13:26;9.00;99.90
21834;DHT22;11079;51.092;3.458;2023-03-05T10:18:54;8.40;99.90
21834;DHT22;11079;51.092;3.458;2023-03-05T10:21:49;8.60;99.90
21834;DHT22;11079;51.092;3.458;2023-03-05T10:24:23;8.40;99.90
21834;DHT22;11079;51.092;3.458;2023-03-05T10:45:40;9.30;99.90
21834;DHT22;11079;51.092;3.458;2023-03-05T10:50:56;9.20;99.90
21834;DHT22;11079;51.092;3.458;2023-03-05T10:53:47;9.50;99.90
21834;DHT22;11079;51.092;3.458;2023-03-05T10:56:39;9.50;99.90
21834;DHT22;11079;51.092;3.458;2023-03-05T10:59:08;9.50;99.90
21834;DHT22;11079;51.092;3.458;2023-03-05T11:01:36;9.50;99.90
21834;DHT22;11079;51.092;3.458;2023-03-05T11:04:28;9.30;99.90
21834;DHT22;11079;51.092;3.458;2023-03-05T11:06:57;9.20;99.90
21834;DHT22;11079;51.092;3.458;2023-03-05T11:09:30;8.90;99.90
21834;DHT22;11079;51.092;3.458;2023-03-05T11:14:33;8.80;99.90
21834;DHT22;11079;51.092;3.458;2023-03-05T11:28:40;7.40;99.90
21834;DHT22;11079;51.092;3.458;2023-03-05T11:32:32;7.60;99.90
21834;DHT22;11079;51.092;3.458;2023-03-05T11:34:36;7.90;99.90
21834;DHT22;11079;51.092;3.458;2023-03-05T11:42:59;8.80;99.90
21834;DHT22;11079;51.092;3.458;2023-03-05T11:45:28;9.10;99.90
21834;DHT22;11079;51.092;3.458;2023-03-05T11:51:27;9.50;99.90
21834;DHT22;11079;51.092;3.458;2023-03-05T12:08:29;10.30;99.90
21834;DHT22;11079;51.092;3.458;2023-03-05T12:14:27;10.50;99.90
21834;DHT22;11079;51.092;3.458;2023-03-05T12:23:49;10.50;99.90
21834;DHT22;11079;51.092;3.458;2023-03-05T12:26:16;10.20;99.90
21834;DHT22;11079;51.092;3.458;2023-03-05T12:31:33;10.10;99.90
21834;DHT22;11079;51.092;3.458;2023-03-05T12:40:00;10.20;99.90
21834;DHT22;11079;51.092;3.458;2023-03-05T12:50:58;9.80;99.90
21834;DHT22;11079;51.092;3.458;2023-03-05T12:53:29;9.60;99.90
21834;DHT22;11079;51.092;3.458;2023-03-05T12:56:25;9.30;99.90
21834;DHT22;11079;51.092;3.458;2023-03-05T12:59:00;9.20;99.90
21834;DHT22;11079;51.092;3.458;2023-03-05T13:01:41;9.20;99.90
21834;DHT22;11079;51.092;3.458;2023-03-05T13:04:31;9.00;99.90
21834;DHT22;11079;51.092;3.458;2023-03-05T13:07:12;8.80;99.90
21834;DHT22;11079;51.092;3.458;2023-03-05T13:09:51;8.70;99.90
21834;DHT22;11079;51.092;3.458;2023-03-05T13:12:22;8.30;99.90
21834;DHT22;11079;51.092;3.458;2023-03-05T13:15:05;8.20;99.90
21834;DHT22;11079;51.092;3.458;2023-03-05T13:17:40;7.90;99.90
21834;DHT22;11079;51.092;3.458;2023-03-05T13:23:48;7.50;99.90
21834;DHT22;11079;51.092;3.458;2023-03-05T13:27:30;7.30;99.90
21834;DHT22;11079;51.092;3.458;2023-03-05T13:29:54;7.10;99.90
21834;DHT22;11079;51.092;3.458;2023-03-05T13:32:37;7.50;99.90
21834;DHT22;11079;51.092;3.458;2023-03-05T13:35:11;7.70;99.90
21834;DHT22;11079;51.092;3.458;2023-03-05T13:37:37;7.70;99.90
21834;DHT22;11079;51.092;3.458;2023-03-05T13:40:19;7.60;99.90
21834;DHT22;11079;51.092;3.458;2023-03-05T13:42:49;7.60;99.90
21834;DHT22;11079;51.092;3.458;2023-03-05T13:47:56;7.90;99.90
21834;DHT22;11079;51.092;3.458;2023-03-05T13:50:35;8.00;99.90
21834;DHT22;11079;51.092;3.458;2023-03-05T13:53:27;7.80;99.90
21834;DHT22;11079;51.092;3.458;2023-03-05T13:56:03;7.80;99.90
21834;DHT22;11079;51.092;3.458;2023-03-05T13:58:52;7.80;99.90
21834;DHT22;11079;51.092;3.458;2023-03-05T14:01:31;8.10;99.90
21834;DHT22;11079;51.092;3.458;2023-03-05T14:07:07;7.70;99.90
21834;DHT22;11079;51.092;3.458;2023-03-05T14:09:50;7.80;99.90
21834;DHT22;11079;51.092;3.458;2023-03-05T14:12:32;8.10;99.90
21834;DHT22;11079;51.092;3.458;2023-03-05T14:15:00;8.10;99.90
21834;DHT22;11079;51.092;3.458;2023-03-05T14:17:31;8.10;99.90
21834;DHT22;11079;51.092;3.458;2023-03-05T14:20:17;7.80;99.90
21834;DHT22;11079;51.092;3.458;2023-03-05T14:22:50;7.60;99.90
21834;DHT22;11079;51.092;3.458;2023-03-05T14:27:59;7.50;99.90
21834;DHT22;11079;51.092;3.458;2023-03-05T14:30:25;7.50;99.90
21834;DHT22;11079;51.092;3.458;2023-03-05T14:32:53;7.60;99.90
21834;DHT22;11079;51.092;3.458;2023-03-05T14:35:22;7.80;99.90
21834;DHT22;11079;51.092;3.458;2023-03-05T14:37:50;7.70;99.90
21834;DHT22;11079;51.092;3.458;2023-03-05T14:40:19;7.70;99.90
21834;DHT22;11079;51.092;3.458;2023-03-05T14:45:36;8.20;99.90
21834;DHT22;11079;51.092;3.458;2023-03-05T14:48:05;8.30;99.90
21834;DHT22;11079;51.092;3.458;2023-03-05T14:53:06;8.20;99.90
21834;DHT22;11079;51.092;3.458;2023-03-05T14:55:33;8.20;99.90
21834;DHT22;11079;51.092;3.458;2023-03-05T14:58:14;8.30;99.90
21834;DHT22;11079;51.092;3.458;2023-03-05T15:00:41;8.30;99.90
21834;DHT22;11079;51.092;3.458;2023-03-05T15:03:12;8.30;99.90
21834;DHT22;11079;51.092;3.458;2023-03-05T15:05:38;8.30;99.90
21834;DHT22;11079;51.092;3.458;2023-03-05T15:08:04;8.20;99.90
21834;DHT22;11079;51.092;3.458;2023-03-05T15:10:32;8.10;99.90
21834;DHT22;11079;51.092;3.458;2023-03-05T15:12:58;8.00;99.90
21834;DHT22;11079;51.092;3.458;2023-03-05T15:15:24;8.00;99.90
21834;DHT22;11079;51.092;3.458;2023-03-05T15:17:50;7.90;99.90
21834;DHT22;11079;51.092;3.458;2023-03-05T15:20:25;7.90;99.90
21834;DHT22;11079;51.092;3.458;2023-03-05T15:23:05;7.90;99.90
21834;DHT22;11079;51.092;3.458;2023-03-05T15:25:31;7.90;99.90
21834;DHT22;11079;51.092;3.458;2023-03-05T15:27:57;7.70;99.90
21834;DHT22;11079;51.092;3.458;2023-03-05T15:30:34;7.70;99.90
21834;DHT22;11079;51.092;3.458;2023-03-05T15:33:04;7.70;99.90
21834;DHT22;11079;51.092;3.458;2023-03-05T15:35:31;7.40;99.90
21834;DHT22;11079;51.092;3.458;2023-03-05T15:37:58;7.60;99.90
21834;DHT22;11079;51.092;3.458;2023-03-05T15:40:25;7.60;99.90
21834;DHT22;11079;51.092;3.458;2023-03-05T15:43:01;7.70;99.90
21834;DHT22;11079;51.092;3.458;2023-03-05T15:45:32;7.60;99.90
21834;DHT22;11079;51.092;3.458;2023-03-05T15:47:58;7.30;99.90
21834;DHT22;11079;51.092;3.458;2023-03-05T15:50:25;7.40;99.90
21834;DHT22;11079;51.092;3.458;2023-03-05T15:52:50;7.40;99.90
21834;DHT22;11079;51.092;3.458;2023-03-05T15:55:16;7.40;99.90
21834;DHT22;11079;51.092;3.458;2023-03-05T15:57:47;7.30;99.90
21834;DHT22;11079;51.092;3.458;2023-03-05T16:00:15;7.30;99.90
21834;DHT22;11079;51.092;3.458;2023-03-05T16:02:41;7.40;99.90
21834;DHT22;11079;51.092;3.458;2023-03-05T16:05:07;7.60;99.90
21834;DHT22;11079;51.092;3.458;2023-03-05T16:07:36;7.50;99.90
21834;DHT22;11079;51.092;3.458;2023-03-05T16:10:03;7.50;99.90
21834;DHT22;11079;51.092;3.458;2023-03-05T16:12:36;7.80;99.90
21834;DHT22;11079;51.092;3.458;2023-03-05T16:15:09;7.60;99.90
21834;DHT22;11079;51.092;3.458;2023-03-05T16:17:36;7.20;99.90
21834;DHT22;11079;51.092;3.458;2023-03-05T16:20:03;7.00;99.90
21834;DHT22;11079;51.092;3.458;2023-03-05T16:22:30;6.90;99.90
21834;DHT22;11079;51.092;3.458;2023-03-05T16:24:55;7.00;99.90
21834;DHT22;11079;51.092;3.458;2023-03-05T16:27:22;7.30;99.90
21834;DHT22;11079;51.092;3.458;2023-03-05T16:29:48;7.40;99.90
21834;DHT22;11079;51.092;3.458;2023-03-05T16:32:15;7.70;99.90
21834;DHT22;11079;51.092;3.458;2023-03-05T16:34:42;7.90;99.90
21834;DHT22;11079;51.092;3.458;2023-03-05T16:37:09;8.00;99.90
21834;DHT22;11079;51.092;3.458;2023-03-05T16:39:35;7.90;99.90
21834;DHT22;11079;51.092;3.458;2023-03-05T16:42:01;7.60;99.90
21834;DHT22;11079;51.092;3.458;2023-03-05T16:44:29;7.70;99.90
21834;DHT22;11079;51.092;3.458;2023-03-05T16:46:54;7.40;99.90
21834;DHT22;11079;51.092;3.458;2023-03-05T16:49:26;7.30;99.90
21834;DHT22;11079;51.092;3.458;2023-03-05T16:51:51;7.30;99.90
21834;DHT22;11079;51.092;3.458;2023-03-05T16:54:17;7.30;99.90
21834;DHT22;11079;51.092;3.458;2023-03-05T16:56:46;7.20;99.90
21834;DHT22;11079;51.092;3.458;2023-03-05T16:59:12;7.40;99.90
21834;DHT22;11079;51.092;3.458;2023-03-05T17:01:37;7.30;99.90
21834;DHT22;11079;51.092;3.458;2023-03-05T17:04:03;7.00;99.90
21834;DHT22;11079;51.092;3.458;2023-03-05T17:06:30;7.00;99.90
21834;DHT22;11079;51.092;3.458;2023-03-05T17:08:59;7.20;99.90
21834;DHT22;11079;51.092;3.458;2023-03-05T17:11:26;7.00;99.90
21834;DHT22;11079;51.092;3.458;2023-03-05T17:13:52;7.00;99.90
21834;DHT22;11079;51.092;3.458;2023-03-05T17:16:19;7.10;99.90
21834;DHT22;11079;51.092;3.458;2023-03-05T17:18:48;7.00;99.90
21834;DHT22;11079;51.092;3.458;2023-03-05T17:21:15;7.00;99.90
21834;DHT22;11079;51.092;3.458;2023-03-05T17:23:42;7.10;99.90
21834;DHT22;11079;51.092;3.458;2023-03-05T17:26:12;7.00;99.90
21834;DHT22;11079;51.092;3.458;2023-03-05T17:28:39;7.00;99.90
21834;DHT22;11079;51.092;3.458;2023-03-05T17:31:16;6.60;99.90
21834;DHT22;11079;51.092;3.458;2023-03-05T17:33:42;6.60;99.90
21834;DHT22;11079;51.092;3.458;2023-03-05T17:36:19;6.50;99.90
21834;DHT22;11079;51.092;3.458;2023-03-05T17:38:49;6.30;99.90
21834;DHT22;11079;51.092;3.458;2023-03-05T17:41:16;6.10;99.90
21834;DHT22;11079;51.092;3.458;2023-03-05T17:43:44;6.00;99.90
21834;DHT22;11079;51.092;3.458;2023-03-05T17:46:15;6.20;99.90
21834;DHT22;11079;51.092;3.458;2023-03-05T17:48:41;6.20;99.90
21834;DHT22;11079;51.092;3.458;2023-03-05T17:51:14;6.30;99.90
21834;DHT22;11079;51.092;3.458;2023-03-05T17:53:42;6.30;99.90
21834;DHT22;11079;51.092;3.458;2023-03-05T17:56:27;6.40;99.90
21834;DHT22;11079;51.092;3.458;2023-03-05T17:59:06;6.30;99.90
21834;DHT22;11079;51.092;3.458;2023-03-05T18:01:45;6.10;99.90
21834;DHT22;11079;51.092;3.458;2023-03-05T18:04:15;6.10;99.90
21834;DHT22;11079;51.092;3.458;2023-03-05T18:06:48;6.40;99.90
21834;DHT22;11079;51.092;3.458;2023-03-05T18:09:14;6.30;99.90
21834;DHT22;11079;51.092;3.458;2023-03-05T18:11:41;6.40;99.90
21834;DHT22;11079;51.092;3.458;2023-03-05T18:14:10;6.50;99.90
21834;DHT22;11079;51.092;3.458;2023-03-05T18:16:36;6.50;99.90
21834;DHT22;11079;51.092;3.458;2023-03-05T18:19:02;6.40;99.90
21834;DHT22;11079;51.092;3.458;2023-03-05T18:21:58;6.30;99.90
21834;DHT22;11079;51.092;3.458;2023-03-05T18:24:23;6.20;99.90
21834;DHT22;11079;51.092;3.458;2023-03-05T18:26:50;6.30;99.90
21834;DHT22;11079;51.092;3.458;2023-03-05T18:29:16;6.20;99.90
21834;DHT22;11079;51.092;3.458;2023-03-05T18:31:42;6.00;99.90
21834;DHT22;11079;51.092;3.458;2023-03-05T18:34:08;6.30;99.90
21834;DHT22;11079;51.092;3.458;2023-03-05T18:36:33;6.40;99.90
21834;DHT22;11079;51.092;3.458;2023-03-05T18:38:59;6.30;99.90
21834;DHT22;11079;51.092;3.458;2023-03-05T18:41:29;6.40;99.90
21834;DHT22;11079;51.092;3.458;2023-03-05T18:43:57;6.40;99.90
21834;DHT22;11079;51.092;3.458;2023-03-05T18:46:27;6.40;99.90
21834;DHT22;11079;51.092;3.458;2023-03-05T18:48:52;6.50;99.90
21834;DHT22;11079;51.092;3.458;2023-03-05T18:51:19;6.70;99.90
21834;DHT22;11079;51.092;3.458;2023-03-05T18:53:57;6.70;99.90
21834;DHT22;11079;51.092;3.458;2023-03-05T18:56:30;6.60;99.90
21834;DHT22;11079;51.092;3.458;2023-03-05T18:58:59;6.70;99.90
21834;DHT22;11079;51.092;3.458;2023-03-05T19:01:26;6.60;99.90
21834;DHT22;11079;51.092;3.458;2023-03-05T19:03:51;6.70;99.90
21834;DHT22;11079;51.092;3.458;2023-03-05T19:06:17;6.70;99.90
21834;DHT22;11079;51.092;3.458;2023-03-05T19:08:44;6.70;99.90
21834;DHT22;11079;51.092;3.458;2023-03-05T19:11:16;6.70;99.90
21834;DHT22;11079;51.092;3.458;2023-03-05T19:13:43;6.50;99.90
21834;DHT22;11079;51.092;3.458;2023-03-05T19:16:27;6.50;99.90
21834;DHT22;11079;51.092;3.458;2023-03-05T19:18:58;6.40;99.90
21834;DHT22;11079;51.092;3.458;2023-03-05T19:21:37;6.50;99.90
21834;DHT22;11079;51.092;3.458;2023-03-05T19:24:37;6.60;99.90
21834;DHT22;11079;51.092;3.458;2023-03-05T19:27:54;6.30;99.90
21834;DHT22;11079;51.092;3.458;2023-03-05T19:30:22;6.40;99.90
21834;DHT22;11079;51.092;3.458;2023-03-05T19:36:28;6.20;99.90
21834;DHT22;11079;51.092;3.458;2023-03-05T19:38:59;6.50;99.90
21834;DHT22;11079;51.092;3.458;2023-03-05T19:41:43;6.60;99.90
21834;DHT22;11079;51.092;3.458;2023-03-05T19:44:49;6.60;99.90